Time;durP1;ratioP1;P1;durP2;ratioP2;P2;SDS_P1;SDS_P2;PMS_P1;PMS_P2;Temp;Humidity;BMP_temperature;BMP_pressure;BME280_temperature;BME280_humidity;BME280_pressure;Samples;Min_cycle;Max_cycle;Signal;HPM_P1;HPM_P2
2024/01/10 00:01:49;;;;;;;7.47;1.90;;;;;;;;;;4980494;28;20033;-30
2024/01/10 00:04:16;;;;;;;2.55;1.60;;;;;;;;;;4997458;28;20108;-31
2024/01/10 00:06:43;;;;;;;3.92;2.03;;;;;;;;;;4997502;28;20478;-29
2024/01/10 00:09:09;;;;;;;4.38;1.52;;;;;;;;;;4997525;28;20442;-30
2024/01/10 00:11:35;;;;;;;3.53;1.92;;;;;;;;;;4997793;28;20026;-31
2024/01/10 00:14:03;;;;;;;2.65;1.48;;;;;;;;;;4997373;28;20022;-30
2024/01/10 00:16:29;;;;;;;5.50;2.20;;;;;;;;;;4997656;28;20028;-31
2024/01/10 00:18:55;;;;;;;1.95;1.52;;;;;;;;;;4997321;28;20027;-29
2024/01/10 00:21:21;;;;;;;7.15;2.45;;;;;;;;;;4997550;28;20426;-32
2024/01/10 00:23:47;;;;;;;1.75;1.58;;;;;;;;;;4997209;28;20350;-33
2024/01/10 00:26:14;;;;;;;4.25;1.50;;;;;;;;;;4997709;28;20126;-29
2024/01/10 00:28:40;;;;;;;3.35;2.25;;;;;;;;;;4997109;28;20037;-29
2024/01/10 00:31:06;;;;;;;2.05;1.58;;;;;;;;;;4997142;28;20054;-30
2024/01/10 00:33:32;;;;;;;3.08;1.88;;;;;;;;;;4997048;28;20038;-31
2024/01/10 00:35:58;;;;;;;2.78;1.98;;;;;;;;;;4997291;28;20082;-31
2024/01/10 00:38:24;;;;;;;4.95;2.08;;;;;;;;;;4997273;28;20068;-29
2024/01/10 00:40:50;;;;;;;4.05;2.00;;;;;;;;;;4996903;28;20041;-31
2024/01/10 00:43:16;;;;;;;4.03;1.58;;;;;;;;;;4996954;28;20033;-30
2024/01/10 00:45:42;;;;;;;3.45;1.52;;;;;;;;;;4996714;28;20454;-29
2024/01/10 00:48:09;;;;;;;2.70;1.45;;;;;;;;;;4996764;28;20037;-29
2024/01/10 00:50:35;;;;;;;1.67;1.50;;;;;;;;;;4996770;28;20529;-31
2024/01/10 00:53:01;;;;;;;2.42;1.55;;;;;;;;;;4996599;28;20104;-30
2024/01/10 00:55:27;;;;;;;2.22;1.42;;;;;;;;;;4996702;28;20041;-30
2024/01/10 00:57:53;;;;;;;2.08;1.60;;;;;;;;;;4996898;28;20030;-30
2024/01/10 01:00:19;;;;;;;3.63;2.50;;;;;;;;;;4996592;28;20026;-32
2024/01/10 01:02:46;;;;;;;4.32;1.67;;;;;;;;;;4996573;28;20031;-31
2024/01/10 01:05:12;;;;;;;3.25;1.45;;;;;;;;;;4996416;28;20041;-31
2024/01/10 01:07:38;;;;;;;4.28;2.05;;;;;;;;;;4996376;28;20107;-30
2024/01/10 01:10:04;;;;;;;2.33;1.45;;;;;;;;;;4979737;28;20100;-29
2024/01/10 01:12:30;;;;;;;4.20;1.77;;;;;;;;;;4996439;28;20038;-30
2024/01/10 01:14:57;;;;;;;4.45;1.75;;;;;;;;;;4996287;28;20026;-30
2024/01/10 01:17:23;;;;;;;1.92;1.50;;;;;;;;;;4996247;28;20018;-31
2024/01/10 01:19:49;;;;;;;2.63;1.67;;;;;;;;;;4979342;28;20394;-31
2024/01/10 01:22:15;;;;;;;1.75;1.45;;;;;;;;;;4996106;28;20465;-30
2024/01/10 01:24:42;;;;;;;1.80;1.48;;;;;;;;;;4996044;28;20130;-30
2024/01/10 01:27:08;;;;;;;3.17;2.33;;;;;;;;;;4979049;28;20422;-31
2024/01/10 01:29:34;;;;;;;4.05;1.52;;;;;;;;;;4996004;28;20022;-30
2024/01/10 01:32:00;;;;;;;2.45;1.73;;;;;;;;;;4978820;28;20022;-29
2024/01/10 01:34:26;;;;;;;2.58;2.15;;;;;;;;;;4996161;28;20105;-31
2024/01/10 01:36:52;;;;;;;3.55;1.90;;;;;;;;;;4995909;28;20032;-31
2024/01/10 01:39:19;;;;;;;4.07;2.13;;;;;;;;;;4995845;28;20037;-32
2024/01/10 01:41:45;;;;;;;2.53;2.05;;;;;;;;;;4978718;28;20030;-30
2024/01/10 01:44:11;;;;;;;4.38;1.88;;;;;;;;;;4995898;28;20042;-30
2024/01/10 01:46:38;;;;;;;1.40;1.30;;;;;;;;;;4996260;28;20461;-31
2024/01/10 01:49:04;;;;;;;2.83;1.52;;;;;;;;;;4995976;28;20031;-29
2024/01/10 01:51:32;;;;;;;3.00;2.20;;;;;;;;;;4996192;28;20026;-32
2024/01/10 01:53:58;;;;;;;1.55;1.08;;;;;;;;;;4995797;28;20425;-30
2024/01/10 01:56:25;;;;;;;2.15;1.75;;;;;;;;;;4995842;28;20030;-32
2024/01/10 01:58:52;;;;;;;2.75;1.20;;;;;;;;;;4995867;28;20030;-31
2024/01/10 02:01:22;;;;;;;2.40;1.55;;;;;;;;;;4995533;28;20034;-30
2024/01/10 02:03:48;;;;;;;1.67;1.38;;;;;;;;;;4995262;28;20069;-33
2024/01/10 02:06:14;;;;;;;2.42;1.63;;;;;;;;;;4978290;28;20366;-29
2024/01/10 02:08:40;;;;;;;3.42;2.00;;;;;;;;;;4978291;28;20030;-31
2024/01/10 02:11:07;;;;;;;2.85;1.48;;;;;;;;;;4978312;28;20125;-32
2024/01/10 02:13:33;;;;;;;3.45;1.67;;;;;;;;;;4994879;28;20516;-30
2024/01/10 02:16:00;;;;;;;3.08;2.13;;;;;;;;;;4995348;28;20030;-29
2024/01/10 02:18:26;;;;;;;4.68;2.10;;;;;;;;;;4995245;28;20026;-33
2024/01/10 02:20:52;;;;;;;3.33;1.88;;;;;;;;;;4995628;28;20081;-28
2024/01/10 02:23:19;;;;;;;3.45;1.88;;;;;;;;;;4978062;28;20038;-32
2024/01/10 02:25:45;;;;;;;2.33;2.08;;;;;;;;;;4995710;28;20031;-31
2024/01/10 02:28:11;;;;;;;1.80;1.45;;;;;;;;;;4995482;28;20030;-32
2024/01/10 02:30:38;;;;;;;2.75;1.60;;;;;;;;;;4995185;28;20050;-30
2024/01/10 02:33:04;;;;;;;1.80;1.70;;;;;;;;;;4995133;28;20166;-29
2024/01/10 02:35:32;;;;;;;2.35;1.27;;;;;;;;;;4995663;28;20109;-30
2024/01/10 02:37:59;;;;;;;6.13;2.72;;;;;;;;;;4995126;28;20027;-30
2024/01/10 02:40:25;;;;;;;1.67;1.58;;;;;;;;;;4995089;28;20033;-31
2024/01/10 02:42:51;;;;;;;1.98;1.40;;;;;;;;;;4995010;28;20030;-33
2024/01/10 02:45:20;;;;;;;2.35;2.15;;;;;;;;;;4995525;28;20049;-30
2024/01/10 02:47:46;;;;;;;1.50;1.40;;;;;;;;;;4995601;28;20022;-32
2024/01/10 02:50:12;;;;;;;2.38;1.52;;;;;;;;;;4977939;28;20453;-30
2024/01/10 02:52:39;;;;;;;2.50;1.40;;;;;;;;;;4977791;28;20044;-30
2024/01/10 02:55:05;;;;;;;1.95;1.60;;;;;;;;;;4995267;28;20345;-30
2024/01/10 02:57:31;;;;;;;1.30;1.20;;;;;;;;;;4994973;28;20357;-30
2024/01/10 02:59:57;;;;;;;2.72;1.40;;;;;;;;;;4994951;28;20026;-30
2024/01/10 03:02:23;;;;;;;2.42;1.73;;;;;;;;;;4994822;28;20034;-30
2024/01/10 03:04:49;;;;;;;1.90;1.15;;;;;;;;;;4994654;28;20051;-30
2024/01/10 03:07:16;;;;;;;1.20;1.10;;;;;;;;;;4994893;28;20042;-30
2024/01/10 03:09:43;;;;;;;2.63;1.30;;;;;;;;;;4994853;28;20027;-31
2024/01/10 03:12:10;;;;;;;2.30;1.65;;;;;;;;;;4977632;28;20453;-32
2024/01/10 03:14:36;;;;;;;1.55;1.45;;;;;;;;;;4994822;28;20369;-29
2024/01/10 03:17:02;;;;;;;5.05;1.73;;;;;;;;;;4994718;28;20037;-30
2024/01/10 03:19:28;;;;;;;2.78;1.65;;;;;;;;;;4995034;28;20036;-33
2024/01/10 03:21:54;;;;;;;1.40;1.30;;;;;;;;;;4994645;28;20042;-30
2024/01/10 03:24:23;;;;;;;1.77;1.50;;;;;;;;;;4996760;28;20088;-33
2024/01/10 03:26:50;;;;;;;5.45;1.98;;;;;;;;;;4998323;28;20022;-30
2024/01/10 03:29:16;;;;;;;2.53;1.60;;;;;;;;;;4998545;28;20028;-30
2024/01/10 03:31:42;;;;;;;3.90;2.05;;;;;;;;;;4998220;28;20077;-31
2024/01/10 03:34:08;;;;;;;1.58;1.48;;;;;;;;;;4998190;28;20030;-31
2024/01/10 03:36:34;;;;;;;2.13;1.40;;;;;;;;;;4998106;28;20026;-30
2024/01/10 03:39:00;;;;;;;1.73;1.50;;;;;;;;;;4998397;28;20026;-31
2024/01/10 03:41:26;;;;;;;1.75;1.42;;;;;;;;;;4998086;28;20026;-30
2024/01/10 03:43:53;;;;;;;1.73;1.50;;;;;;;;;;4998038;28;20339;-31
2024/01/10 03:46:19;;;;;;;3.17;1.73;;;;;;;;;;4998178;28;20378;-32
2024/01/10 03:48:48;;;;;;;2.65;1.35;;;;;;;;;;4980786;28;20088;-30
2024/01/10 03:51:17;;;;;;;2.58;1.92;;;;;;;;;;4998151;28;20323;-30
2024/01/10 03:53:44;;;;;;;3.85;2.08;;;;;;;;;;4997888;28;20464;-29
2024/01/10 03:56:10;;;;;;;2.63;1.33;;;;;;;;;;4997811;28;20038;-31
2024/01/10 03:58:37;;;;;;;2.20;1.55;;;;;;;;;;4997791;28;20030;-32
2024/01/10 04:01:06;;;;;;;2.97;1.60;;;;;;;;;;4997976;28;20027;-30
2024/01/10 04:03:33;;;;;;;2.30;1.38;;;;;;;;;;4977010;28;20557;-30
2024/01/10 04:05:59;;;;;;;1.77;1.67;;;;;;;;;;4977158;28;20119;-31
2024/01/10 04:08:25;;;;;;;1.70;1.55;;;;;;;;;;4978410;28;20029;-30
2024/01/10 04:10:51;;;;;;;2.35;1.48;;;;;;;;;;4978330;28;20023;-30
2024/01/10 04:13:17;;;;;;;3.80;1.50;;;;;;;;;;4978013;28;20034;-31
2024/01/10 04:15:43;;;;;;;2.03;1.60;;;;;;;;;;4978264;28;20391;-28
2024/01/10 04:18:09;;;;;;;3.00;1.58;;;;;;;;;;4977964;28;20026;-31
2024/01/10 04:20:36;;;;;;;2.03;1.80;;;;;;;;;;4976981;28;20105;-30
2024/01/10 04:23:02;;;;;;;1.25;1.15;;;;;;;;;;4976857;28;20045;-29
2024/01/10 04:25:28;;;;;;;1.63;1.52;;;;;;;;;;4977995;28;20030;-29
2024/01/10 04:27:55;;;;;;;4.10;1.73;;;;;;;;;;4977972;28;20023;-31
2024/01/10 04:30:22;;;;;;;3.53;1.67;;;;;;;;;;4977745;28;20034;-33
2024/01/10 04:32:48;;;;;;;2.13;1.60;;;;;;;;;;4976936;28;20022;-30
2024/01/10 04:35:14;;;;;;;3.05;1.63;;;;;;;;;;4977262;28;20042;-30
2024/01/10 04:37:40;;;;;;;6.68;2.63;;;;;;;;;;4977828;28;20074;-31
2024/01/10 04:40:07;;;;;;;4.22;1.83;;;;;;;;;;4977577;28;20105;-30
2024/01/10 04:42:33;;;;;;;5.72;1.88;;;;;;;;;;4976918;28;20362;-30
2024/01/10 04:44:59;;;;;;;2.38;1.73;;;;;;;;;;4977451;28;20034;-31
2024/01/10 04:47:25;;;;;;;4.20;1.58;;;;;;;;;;4976486;28;20106;-30
2024/01/10 04:49:51;;;;;;;3.35;1.60;;;;;;;;;;4977289;28;20054;-32
2024/01/10 04:52:17;;;;;;;1.67;1.40;;;;;;;;;;4977479;28;20354;-31
2024/01/10 04:54:43;;;;;;;5.20;2.08;;;;;;;;;;4977224;28;20029;-29
2024/01/10 04:57:11;;;;;;;2.67;2.05;;;;;;;;;;4977324;28;20151;-32
2024/01/10 04:59:37;;;;;;;2.42;2.17;;;;;;;;;;4977355;28;20054;-28
2024/01/10 05:02:04;;;;;;;3.50;1.63;;;;;;;;;;4976949;28;20164;-31
2024/01/10 05:04:30;;;;;;;2.55;2.35;;;;;;;;;;4993158;28;20379;-30
2024/01/10 05:06:56;;;;;;;1.88;1.60;;;;;;;;;;4996406;28;20049;-29
2024/01/10 05:09:23;;;;;;;2.67;1.63;;;;;;;;;;4979551;28;20091;-27
2024/01/10 05:11:51;;;;;;;1.70;1.40;;;;;;;;;;4996174;28;20026;-31
2024/01/10 05:14:21;;;;;;;3.30;1.42;;;;;;;;;;4979078;28;20084;-28
2024/01/10 05:16:50;;;;;;;3.65;2.03;;;;;;;;;;4996532;28;20034;-31
2024/01/10 05:19:17;;;;;;;2.30;1.40;;;;;;;;;;4996258;28;20022;-27
2024/01/10 05:21:43;;;;;;;4.97;1.50;;;;;;;;;;4996084;28;20335;-31
2024/01/10 05:24:10;;;;;;;3.00;1.88;;;;;;;;;;4995904;28;20026;-31
2024/01/10 05:26:36;;;;;;;4.40;1.77;;;;;;;;;;4979494;28;20033;-32
2024/01/10 05:29:02;;;;;;;5.43;1.95;;;;;;;;;;4996269;28;20157;-31
2024/01/10 05:31:29;;;;;;;2.63;2.08;;;;;;;;;;4996105;28;20029;-30
2024/01/10 05:33:58;;;;;;;2.88;1.90;;;;;;;;;;4995895;28;20023;-31
2024/01/10 05:36:24;;;;;;;12.13;2.15;;;;;;;;;;4995873;28;20033;-28
2024/01/10 05:38:50;;;;;;;3.40;2.20;;;;;;;;;;4995671;28;20418;-30
2024/01/10 05:41:16;;;;;;;3.08;2.42;;;;;;;;;;4996133;28;20416;-30
2024/01/10 05:43:43;;;;;;;4.40;1.98;;;;;;;;;;4996125;28;20030;-29
2024/01/10 05:46:10;;;;;;;8.02;2.25;;;;;;;;;;4995489;28;20030;-28
2024/01/10 05:48:36;;;;;;;4.57;1.77;;;;;;;;;;4994771;28;20112;-31
2024/01/10 05:51:03;;;;;;;5.18;1.88;;;;;;;;;;4995654;28;20365;-30
2024/01/10 05:53:30;;;;;;;4.95;1.77;;;;;;;;;;4995804;28;20159;-31
2024/01/10 05:55:56;;;;;;;11.95;2.65;;;;;;;;;;4995617;28;20365;-27
2024/01/10 05:58:22;;;;;;;14.85;2.63;;;;;;;;;;4995605;28;20037;-30
2024/01/10 06:00:49;;;;;;;13.88;3.40;;;;;;;;;;4995649;28;20093;-31
2024/01/10 06:03:15;;;;;;;15.20;3.22;;;;;;;;;;4995382;28;20046;-30
2024/01/10 06:05:41;;;;;;;10.10;1.90;;;;;;;;;;4995248;28;20335;-29
2024/01/10 06:08:09;;;;;;;4.20;1.80;;;;;;;;;;4995547;28;20030;-30
2024/01/10 06:10:36;;;;;;;6.20;2.50;;;;;;;;;;4994589;28;20039;-29
2024/01/10 06:13:03;;;;;;;3.75;2.17;;;;;;;;;;4977755;28;20030;-30
2024/01/10 06:15:29;;;;;;;5.40;2.30;;;;;;;;;;4995238;28;20026;-29
2024/01/10 06:17:55;;;;;;;4.38;2.28;;;;;;;;;;4977903;28;20124;-29
2024/01/10 06:20:21;;;;;;;7.35;2.83;;;;;;;;;;4995323;28;20041;-30
2024/01/10 06:22:47;;;;;;;4.35;1.65;;;;;;;;;;4994998;28;20573;-34
2024/01/10 06:25:14;;;;;;;4.85;2.67;;;;;;;;;;4995346;28;20030;-29
2024/01/10 06:27:40;;;;;;;6.18;1.83;;;;;;;;;;4995395;28;20334;-29
2024/01/10 06:30:07;;;;;;;6.88;1.90;;;;;;;;;;4995394;28;20057;-30
2024/01/10 06:32:33;;;;;;;6.40;1.80;;;;;;;;;;4995332;28;20030;-31
2024/01/10 06:35:01;;;;;;;4.03;1.98;;;;;;;;;;4995083;28;20101;-29
2024/01/10 06:37:28;;;;;;;4.80;1.73;;;;;;;;;;4995069;28;20042;-31
2024/01/10 06:39:54;;;;;;;4.10;2.38;;;;;;;;;;4995625;28;20035;-31
2024/01/10 06:42:20;;;;;;;3.17;1.23;;;;;;;;;;4977724;28;20477;-30
2024/01/10 06:44:46;;;;;;;7.03;1.95;;;;;;;;;;4994792;28;20034;-30
2024/01/10 06:47:14;;;;;;;3.72;2.22;;;;;;;;;;4995474;28;20080;-30
2024/01/10 06:49:40;;;;;;;5.47;1.92;;;;;;;;;;4995158;28;20105;-29
2024/01/10 06:52:07;;;;;;;3.70;1.77;;;;;;;;;;4995091;28;20078;-30
2024/01/10 06:54:35;;;;;;;3.65;1.98;;;;;;;;;;4994754;28;20029;-32
2024/01/10 06:57:01;;;;;;;2.08;1.80;;;;;;;;;;4994773;28;20027;-30
2024/01/10 06:59:27;;;;;;;3.55;1.80;;;;;;;;;;4996812;28;20125;-31
2024/01/10 07:01:55;;;;;;;8.35;2.20;;;;;;;;;;4998919;28;20037;-32
2024/01/10 07:04:23;;;;;;;7.38;2.33;;;;;;;;;;4998488;28;20042;-30
2024/01/10 07:06:50;;;;;;;5.80;2.28;;;;;;;;;;4998875;28;20030;-32
2024/01/10 07:09:19;;;;;;;5.68;1.88;;;;;;;;;;4998881;28;20037;-29
2024/01/10 07:11:49;;;;;;;14.32;2.03;;;;;;;;;;4981337;28;20084;-31
2024/01/10 07:14:18;;;;;;;3.67;2.00;;;;;;;;;;4998749;28;20030;-31
2024/01/10 07:16:45;;;;;;;10.98;2.00;;;;;;;;;;4998937;28;20438;-31
2024/01/10 07:19:15;;;;;;;6.97;2.05;;;;;;;;;;4998312;28;20050;-29
2024/01/10 07:21:41;;;;;;;4.35;1.77;;;;;;;;;;4998319;28;20026;-32
2024/01/10 07:24:11;;;;;;;6.35;2.50;;;;;;;;;;4998237;28;20026;-30
2024/01/10 07:26:38;;;;;;;2.42;1.70;;;;;;;;;;4999097;28;20026;-30
2024/01/10 07:29:04;;;;;;;3.00;1.77;;;;;;;;;;4998444;28;20054;-33
2024/01/10 07:31:33;;;;;;;9.13;2.03;;;;;;;;;;4998030;28;20082;-29
2024/01/10 07:33:59;;;;;;;7.32;2.75;;;;;;;;;;4998099;28;20053;-31
2024/01/10 07:36:33;;;;;;;3.05;2.08;;;;;;;;;;4998356;28;20101;-30
2024/01/10 07:39:00;;;;;;;9.55;2.00;;;;;;;;;;4997919;28;20034;-31
2024/01/10 07:41:26;;;;;;;5.07;1.70;;;;;;;;;;4998204;28;20030;-27
2024/01/10 07:43:52;;;;;;;2.70;2.25;;;;;;;;;;4997848;28;20034;-29
2024/01/10 07:46:18;;;;;;;5.13;1.65;;;;;;;;;;4997943;28;20050;-30
2024/01/10 07:48:44;;;;;;;16.92;1.80;;;;;;;;;;4998110;28;20105;-30
2024/01/10 07:51:10;;;;;;;4.95;2.10;;;;;;;;;;4997768;28;20022;-30
2024/01/10 07:53:37;;;;;;;3.90;2.08;;;;;;;;;;4997692;28;20023;-30
2024/01/10 07:56:03;;;;;;;3.33;1.65;;;;;;;;;;4997796;28;20042;-31
2024/01/10 07:58:30;;;;;;;11.07;1.70;;;;;;;;;;4998093;28;20043;-30
2024/01/10 08:00:56;;;;;;;5.32;2.00;;;;;;;;;;4997558;28;20038;-28
2024/01/10 08:03:22;;;;;;;4.50;2.25;;;;;;;;;;4997316;28;20470;-31
2024/01/10 08:05:48;;;;;;;4.53;1.80;;;;;;;;;;4997396;28;20045;-29
2024/01/10 08:08:16;;;;;;;3.40;2.00;;;;;;;;;;4997410;28;20026;-30
2024/01/10 08:10:43;;;;;;;2.78;1.80;;;;;;;;;;4979410;28;20030;-32
2024/01/10 08:13:10;;;;;;;4.30;2.30;;;;;;;;;;4997296;28;20023;-31
2024/01/10 08:15:37;;;;;;;2.55;1.63;;;;;;;;;;4997301;28;20469;-31
2024/01/10 08:18:03;;;;;;;6.70;1.85;;;;;;;;;;4997232;28;20030;-29
2024/01/10 08:20:29;;;;;;;4.05;1.58;;;;;;;;;;4997476;28;20034;-29
2024/01/10 08:22:55;;;;;;;6.20;1.90;;;;;;;;;;4996933;28;20031;-29
2024/01/10 08:25:22;;;;;;;4.65;2.10;;;;;;;;;;4996988;28;20108;-30
2024/01/10 08:27:48;;;;;;;1.60;1.50;;;;;;;;;;4996828;28;20024;-30
2024/01/10 08:30:15;;;;;;;3.83;1.95;;;;;;;;;;4996803;28;20051;-30
2024/01/10 08:32:41;;;;;;;4.65;2.10;;;;;;;;;;4997023;28;20022;-31
2024/01/10 08:35:11;;;;;;;2.50;1.70;;;;;;;;;;4996776;28;20042;-31
2024/01/10 08:37:37;;;;;;;5.30;2.05;;;;;;;;;;4997057;28;20030;-33
2024/01/10 08:40:09;;;;;;;7.25;2.22;;;;;;;;;;4979610;28;20105;-30
2024/01/10 08:42:36;;;;;;;11.57;2.60;;;;;;;;;;4996850;28;20334;-30
2024/01/10 08:45:02;;;;;;;5.75;2.17;;;;;;;;;;4996471;28;20023;-31
2024/01/10 08:47:31;;;;;;;3.85;1.38;;;;;;;;;;4996578;28;20030;-31
2024/01/10 08:49:57;;;;;;;2.28;2.05;;;;;;;;;;4996516;28;20101;-31
2024/01/10 08:52:23;;;;;;;5.15;2.50;;;;;;;;;;4996581;28;20030;-31
2024/01/10 08:54:49;;;;;;;6.32;3.17;;;;;;;;;;4996650;28;20041;-33
2024/01/10 08:57:15;;;;;;;3.47;1.90;;;;;;;;;;4996723;28;20106;-31
2024/01/10 08:59:42;;;;;;;2.65;1.90;;;;;;;;;;4996944;28;20037;-31
2024/01/10 09:02:08;;;;;;;2.85;2.20;;;;;;;;;;4996725;28;20121;-33
2024/01/10 09:04:35;;;;;;;3.45;1.60;;;;;;;;;;4997000;28;20050;-31
2024/01/10 09:07:01;;;;;;;4.43;2.13;;;;;;;;;;4996471;28;20088;-30
2024/01/10 09:09:27;;;;;;;1.92;1.58;;;;;;;;;;4996183;28;20023;-29
2024/01/10 09:11:53;;;;;;;6.82;2.10;;;;;;;;;;4996386;28;20424;-31
2024/01/10 09:14:20;;;;;;;6.88;2.25;;;;;;;;;;4996395;28;20357;-33
2024/01/10 09:16:46;;;;;;;6.05;3.03;;;;;;;;;;4996232;28;20115;-31
2024/01/10 09:19:13;;;;;;;9.02;1.80;;;;;;;;;;4996326;28;20022;-28
2024/01/10 09:21:39;;;;;;;4.30;2.28;;;;;;;;;;4995744;28;20454;-29
2024/01/10 09:24:08;;;;;;;8.30;2.75;;;;;;;;;;4995909;28;20030;-30
2024/01/10 09:26:35;;;;;;;8.05;2.10;;;;;;;;;;4995669;28;20132;-32
2024/01/10 09:29:01;;;;;;;5.80;2.30;;;;;;;;;;4996828;28;20054;-31
2024/01/10 09:31:29;;;;;;;5.32;2.22;;;;;;;;;;4996552;28;20450;-30
2024/01/10 09:33:55;;;;;;;16.40;2.60;;;;;;;;;;4978491;28;20089;-30
2024/01/10 09:36:21;;;;;;;9.02;2.30;;;;;;;;;;4996390;28;20022;-29
2024/01/10 09:38:47;;;;;;;11.43;2.88;;;;;;;;;;4996248;28;20030;-31
2024/01/10 09:41:13;;;;;;;10.30;2.08;;;;;;;;;;4995788;28;20084;-33
2024/01/10 09:43:40;;;;;;;9.07;1.95;;;;;;;;;;4995437;28;20046;-33
2024/01/10 09:46:07;;;;;;;3.47;2.03;;;;;;;;;;4995734;28;20030;-30
2024/01/10 09:48:33;;;;;;;6.25;2.70;;;;;;;;;;4995771;28;20022;-29
2024/01/10 09:50:59;;;;;;;6.38;2.30;;;;;;;;;;4995473;28;20018;-30
2024/01/10 09:53:27;;;;;;;5.10;1.90;;;;;;;;;;4995887;28;20030;-30
2024/01/10 09:55:56;;;;;;;4.75;1.95;;;;;;;;;;4995649;28;20042;-30
2024/01/10 09:58:26;;;;;;;4.95;2.25;;;;;;;;;;4995353;28;20022;-31
2024/01/10 10:00:52;;;;;;;4.97;1.98;;;;;;;;;;4995180;28;20511;-30
2024/01/10 10:03:19;;;;;;;4.55;2.00;;;;;;;;;;4978661;28;20189;-31
2024/01/10 10:05:45;;;;;;;2.70;1.80;;;;;;;;;;4994538;28;20057;-30
2024/01/10 10:08:14;;;;;;;3.20;2.22;;;;;;;;;;4978295;28;20033;-32
2024/01/10 10:10:42;;;;;;;8.88;1.92;;;;;;;;;;4995094;28;20040;-32
2024/01/10 10:13:13;;;;;;;5.75;2.65;;;;;;;;;;4995010;28;20109;-29
2024/01/10 10:15:39;;;;;;;5.50;2.20;;;;;;;;;;4995160;28;20029;-31
2024/01/10 10:18:06;;;;;;;9.63;2.63;;;;;;;;;;4995646;28;20097;-32
2024/01/10 10:20:37;;;;;;;6.35;2.20;;;;;;;;;;4977882;28;20133;-31
2024/01/10 10:23:10;;;;;;;3.00;2.00;;;;;;;;;;4995150;28;20051;-30
2024/01/10 10:25:43;;;;;;;6.30;2.53;;;;;;;;;;4994991;28;20088;-30
2024/01/10 10:28:09;;;;;;;8.18;2.00;;;;;;;;;;4995031;28;20033;-30
2024/01/10 10:30:35;;;;;;;4.57;3.15;;;;;;;;;;4995180;28;20029;-32
2024/01/10 10:33:04;;;;;;;4.60;2.88;;;;;;;;;;4995932;28;20118;-31
2024/01/10 10:35:31;;;;;;;4.85;1.85;;;;;;;;;;5001671;28;20409;-30
2024/01/10 10:37:59;;;;;;;3.42;2.28;;;;;;;;;;5002205;28;20104;-29
2024/01/10 10:40:25;;;;;;;3.92;2.38;;;;;;;;;;5002006;28;20037;-29
2024/01/10 10:43:04;;;;;;;2.85;1.88;;;;;;;;;;5001830;28;20030;-26
2024/01/10 10:45:32;;;;;;;9.23;2.22;;;;;;;;;;5001504;28;20529;-31
2024/01/10 10:47:59;;;;;;;3.33;1.90;;;;;;;;;;5001855;28;20030;-29
2024/01/10 10:50:26;;;;;;;5.88;2.45;;;;;;;;;;5001754;28;20091;-30
2024/01/10 10:52:53;;;;;;;5.38;2.58;;;;;;;;;;4984724;28;20093;-31
2024/01/10 10:55:19;;;;;;;3.75;2.10;;;;;;;;;;5001353;28;20030;-30
2024/01/10 10:57:46;;;;;;;6.13;2.88;;;;;;;;;;5001256;28;20034;-31
2024/01/10 11:00:16;;;;;;;4.93;3.15;;;;;;;;;;4984162;28;20034;-30
2024/01/10 11:02:46;;;;;;;9.50;2.92;;;;;;;;;;5001188;28;20061;-31
2024/01/10 11:05:12;;;;;;;5.95;2.40;;;;;;;;;;5001215;28;20350;-29
2024/01/10 11:07:45;;;;;;;4.13;2.40;;;;;;;;;;5001273;28;20027;-29
2024/01/10 11:10:22;;;;;;;9.55;2.47;;;;;;;;;;5001306;28;20034;-29
2024/01/10 11:13:02;;;;;;;6.05;3.10;;;;;;;;;;5001418;28;20037;-30
2024/01/10 11:15:44;;;;;;;7.45;2.42;;;;;;;;;;5001228;28;20109;-31
2024/01/10 11:18:13;;;;;;;11.90;2.92;;;;;;;;;;5001151;28;20038;-31
2024/01/10 11:20:52;;;;;;;5.85;2.40;;;;;;;;;;5001098;28;20038;-31
2024/01/10 11:23:37;;;;;;;9.10;3.00;;;;;;;;;;5001198;28;20040;-31
2024/01/10 11:26:04;;;;;;;7.82;2.80;;;;;;;;;;4983610;28;20026;-33
2024/01/10 11:28:33;;;;;;;4.22;2.70;;;;;;;;;;5001079;28;20465;-31
2024/01/10 11:30:59;;;;;;;23.63;3.55;;;;;;;;;;5001017;28;20105;-30
2024/01/10 11:33:33;;;;;;;9.45;2.47;;;;;;;;;;5001015;28;20022;-30
2024/01/10 11:36:09;;;;;;;14.38;3.42;;;;;;;;;;5001225;28;20038;-30
2024/01/10 11:38:40;;;;;;;9.43;3.00;;;;;;;;;;5001203;28;20030;-30
2024/01/10 11:41:08;;;;;;;;;;;;;;;;;;5002072;28;20018;-30
2024/01/10 11:43:34;;;;;;;5.95;2.55;;;;;;;;;;5001002;28;20179;-29
2024/01/10 11:46:01;;;;;;;10.30;2.95;;;;;;;;;;4998774;28;20033;-32
2024/01/10 11:48:32;;;;;;;11.13;3.13;;;;;;;;;;4997974;28;20070;-32
2024/01/10 11:50:59;;;;;;;5.05;3.10;;;;;;;;;;4998383;28;20036;-31
2024/01/10 11:53:52;;;;;;;4.40;2.95;;;;;;;;;;4997747;28;20096;-30
2024/01/10 11:56:19;;;;;;;7.28;3.35;;;;;;;;;;4994992;28;20038;-30
2024/01/10 11:58:54;;;;;;;4.50;2.80;;;;;;;;;;4980454;28;20033;-30
2024/01/10 12:01:22;;;;;;;6.68;2.45;;;;;;;;;;4997704;28;20026;-28
2024/01/10 12:03:48;;;;;;;5.47;2.28;;;;;;;;;;4997378;28;20034;-32
2024/01/10 12:06:15;;;;;;;7.35;2.95;;;;;;;;;;4997290;28;20133;-30
2024/01/10 12:08:42;;;;;;;13.50;2.60;;;;;;;;;;4997418;28;20023;-30
2024/01/10 12:11:08;;;;;;;8.00;2.55;;;;;;;;;;4997472;28;20347;-29
2024/01/10 12:13:35;;;;;;;5.70;2.45;;;;;;;;;;4997391;28;20068;-30
2024/01/10 12:16:01;;;;;;;4.32;2.35;;;;;;;;;;4980257;28;20113;-31
2024/01/10 12:18:27;;;;;;;12.93;3.95;;;;;;;;;;4997293;28;20030;-30
2024/01/10 12:20:53;;;;;;;5.63;2.60;;;;;;;;;;4997204;28;20034;-29
2024/01/10 12:23:19;;;;;;;5.70;2.08;;;;;;;;;;4997072;28;20053;-31
2024/01/10 12:25:46;;;;;;;10.23;3.47;;;;;;;;;;4997842;28;20034;-32
2024/01/10 12:28:16;;;;;;;6.15;2.55;;;;;;;;;;4997119;28;20038;-30
2024/01/10 12:30:43;;;;;;;4.18;2.80;;;;;;;;;;4980790;28;20022;-30
2024/01/10 12:33:12;;;;;;;4.25;2.47;;;;;;;;;;4997018;28;20022;-29
2024/01/10 12:35:41;;;;;;;6.75;3.17;;;;;;;;;;4997369;28;20496;-31
2024/01/10 12:38:07;;;;;;;6.20;2.55;;;;;;;;;;4996908;28;20030;-28
2024/01/10 12:40:33;;;;;;;6.93;2.05;;;;;;;;;;4997453;28;20029;-29
2024/01/10 12:43:06;;;;;;;6.80;2.90;;;;;;;;;;4996692;28;20025;-31
2024/01/10 12:45:32;;;;;;;5.70;3.22;;;;;;;;;;4997410;28;20061;-31
2024/01/10 12:47:58;;;;;;;10.43;2.90;;;;;;;;;;4997045;28;20355;-30
2024/01/10 12:50:25;;;;;;;10.05;3.53;;;;;;;;;;4996778;28;20014;-28
2024/01/10 12:52:51;;;;;;;7.82;2.55;;;;;;;;;;4996707;28;20033;-31
2024/01/10 12:55:18;;;;;;;7.10;2.17;;;;;;;;;;4996975;28;20026;-29
2024/01/10 12:57:44;;;;;;;8.88;3.55;;;;;;;;;;4996321;28;20117;-29
2024/01/10 13:00:13;;;;;;;2.85;1.85;;;;;;;;;;4997224;28;20457;-31
2024/01/10 13:02:40;;;;;;;4.63;2.97;;;;;;;;;;4996621;28;20113;-31
2024/01/10 13:05:09;;;;;;;7.50;2.97;;;;;;;;;;4996252;28;20107;-30
2024/01/10 13:07:38;;;;;;;3.72;2.50;;;;;;;;;;4996697;28;20439;-30
2024/01/10 13:10:05;;;;;;;14.30;3.60;;;;;;;;;;4996425;28;20027;-29
2024/01/10 13:12:31;;;;;;;8.70;3.40;;;;;;;;;;4996249;28;20026;-30
2024/01/10 13:14:57;;;;;;;4.05;2.58;;;;;;;;;;4996137;28;20057;-29
2024/01/10 13:17:23;;;;;;;9.43;3.22;;;;;;;;;;4996963;28;20108;-30
2024/01/10 13:19:49;;;;;;;14.35;3.60;;;;;;;;;;4996119;28;20048;-30
2024/01/10 13:22:18;;;;;;;8.70;3.30;;;;;;;;;;4996717;28;20022;-29
2024/01/10 13:24:45;;;;;;;10.98;3.15;;;;;;;;;;4996041;28;20030;-31
2024/01/10 13:27:12;;;;;;;12.63;3.28;;;;;;;;;;4996454;28;20106;-33
2024/01/10 13:29:38;;;;;;;21.85;5.60;;;;;;;;;;4995816;28;20106;-31
2024/01/10 13:32:05;;;;;;;7.75;3.85;;;;;;;;;;4996395;28;20462;-32
2024/01/10 13:34:32;;;;;;;10.65;3.40;;;;;;;;;;4996161;28;20037;-29
2024/01/10 13:36:58;;;;;;;6.35;3.33;;;;;;;;;;4995797;28;20023;-29
2024/01/10 13:39:25;;;;;;;10.20;3.60;;;;;;;;;;4978801;28;20045;-33
2024/01/10 13:41:51;;;;;;;7.07;3.58;;;;;;;;;;4978690;28;20030;-32
2024/01/10 13:44:17;;;;;;;13.30;4.32;;;;;;;;;;4978601;28;20370;-30
2024/01/10 13:46:44;;;;;;;12.63;4.28;;;;;;;;;;4995611;28;20102;-32
2024/01/10 13:49:11;;;;;;;6.80;3.47;;;;;;;;;;4995912;28;20050;-30
2024/01/10 13:51:37;;;;;;;11.23;2.47;;;;;;;;;;4995557;28;20037;-31
2024/01/10 13:54:03;;;;;;;4.05;2.72;;;;;;;;;;4995454;28;20041;-30
2024/01/10 13:56:30;;;;;;;7.68;3.10;;;;;;;;;;4995720;28;20029;-31
2024/01/10 13:58:57;;;;;;;6.40;3.05;;;;;;;;;;4995765;28;20160;-30
2024/01/10 14:01:23;;;;;;;10.32;3.70;;;;;;;;;;4995521;28;20037;-31
2024/01/10 14:03:49;;;;;;;6.40;2.97;;;;;;;;;;4995884;28;20090;-29
2024/01/10 14:06:15;;;;;;;14.25;3.55;;;;;;;;;;4977871;28;20133;-31
2024/01/10 14:08:43;;;;;;;8.82;2.33;;;;;;;;;;4994385;28;20030;-30
2024/01/10 14:11:09;;;;;;;5.95;3.25;;;;;;;;;;4995355;28;20014;-36
2024/01/10 14:13:36;;;;;;;8.77;3.15;;;;;;;;;;4995226;28;20061;-32
2024/01/10 14:16:02;;;;;;;9.07;4.10;;;;;;;;;;4995386;28;20034;-31
2024/01/10 14:18:28;;;;;;;6.43;2.70;;;;;;;;;;4995144;28;20041;-29
2024/01/10 14:20:54;;;;;;;14.10;2.97;;;;;;;;;;4977989;28;20026;-30
2024/01/10 14:23:20;;;;;;;13.50;3.20;;;;;;;;;;4995051;28;20454;-32
2024/01/10 14:25:47;;;;;;;12.65;3.22;;;;;;;;;;4995334;28;20032;-30
2024/01/10 14:28:13;;;;;;;14.25;4.47;;;;;;;;;;4995429;28;20026;-30
2024/01/10 14:30:40;;;;;;;15.85;4.22;;;;;;;;;;4995110;28;20022;-31
2024/01/10 14:33:06;;;;;;;10.85;3.53;;;;;;;;;;4995132;28;20031;-30
2024/01/10 14:35:33;;;;;;;9.40;3.33;;;;;;;;;;4995160;28;20022;-32
2024/01/10 14:37:59;;;;;;;8.52;3.20;;;;;;;;;;4995367;28;20034;-31
2024/01/10 14:40:25;;;;;;;7.75;3.33;;;;;;;;;;4977796;28;20061;-29